sensor_id;sensor_type;location;lat;lon;timestamp;pressure;altitude;pressure_sealevel;temperature;humidity
33286;BME280;19656;50.096;20.014;2022-07-06T00:03:08;99040.45;;;20.98;64.62
33286;BME280;19656;50.096;20.014;2022-07-06T00:08:12;99036.63;;;20.87;64.52
33286;BME280;19656;50.096;20.014;2022-07-06T00:13:15;99041.70;;;20.78;64.55
33286;BME280;19656;50.096;20.014;2022-07-06T00:18:18;99048.96;;;20.72;64.55
33286;BME280;19656;50.096;20.014;2022-07-06T00:23:22;99045.30;;;20.67;64.75
33286;BME280;19656;50.096;20.014;2022-07-06T00:28:25;99052.81;;;20.68;64.87
33286;BME280;19656;50.096;20.014;2022-07-06T00:33:28;99046.61;;;20.64;64.95
33286;BME280;19656;50.096;20.014;2022-07-06T00:38:31;99046.52;;;20.63;64.90
33286;BME280;19656;50.096;20.014;2022-07-06T00:44:07;99045.05;;;20.69;65.07
33286;BME280;19656;50.096;20.014;2022-07-06T00:49:11;99038.42;;;20.66;64.97
33286;BME280;19656;50.096;20.014;2022-07-06T00:54:34;99029.91;;;20.63;64.84
33286;BME280;19656;50.096;20.014;2022-07-06T00:59:39;99027.55;;;20.60;64.90
33286;BME280;19656;50.096;20.014;2022-07-06T01:04:42;99037.13;;;20.58;64.93
33286;BME280;19656;50.096;20.014;2022-07-06T01:09:45;99032.86;;;20.57;64.89
33286;BME280;19656;50.096;20.014;2022-07-06T01:14:49;99030.25;;;20.60;64.86
33286;BME280;19656;50.096;20.014;2022-07-06T01:19:52;99034.89;;;20.59;64.81
33286;BME280;19656;50.096;20.014;2022-07-06T01:24:55;99031.94;;;20.54;64.77
33286;BME280;19656;50.096;20.014;2022-07-06T01:29:58;99033.58;;;20.47;64.73
33286;BME280;19656;50.096;20.014;2022-07-06T01:35:03;99035.11;;;20.39;64.86
33286;BME280;19656;50.096;20.014;2022-07-06T01:40:08;99031.39;;;20.36;64.82
33286;BME280;19656;50.096;20.014;2022-07-06T01:45:11;99037.17;;;20.34;64.84
33286;BME280;19656;50.096;20.014;2022-07-06T01:50:14;99044.94;;;20.32;64.91
33286;BME280;19656;50.096;20.014;2022-07-06T01:55:20;99038.30;;;20.30;65.07
33286;BME280;19656;50.096;20.014;2022-07-06T02:00:23;99042.75;;;20.29;65.15
33286;BME280;19656;50.096;20.014;2022-07-06T02:05:26;99051.42;;;20.32;65.11
33286;BME280;19656;50.096;20.014;2022-07-06T02:10:29;99049.92;;;20.31;65.20
33286;BME280;19656;50.096;20.014;2022-07-06T02:15:33;99049.84;;;20.34;65.28
33286;BME280;19656;50.096;20.014;2022-07-06T02:20:36;99041.23;;;20.30;65.25
33286;BME280;19656;50.096;20.014;2022-07-06T02:25:40;99039.63;;;20.32;65.31
33286;BME280;19656;50.096;20.014;2022-07-06T02:30:43;99040.57;;;20.31;65.44
33286;BME280;19656;50.096;20.014;2022-07-06T02:35:47;99045.02;;;20.33;65.29
33286;BME280;19656;50.096;20.014;2022-07-06T02:40:51;99044.38;;;20.35;65.40
33286;BME280;19656;50.096;20.014;2022-07-06T02:45:54;99045.48;;;20.38;65.46
33286;BME280;19656;50.096;20.014;2022-07-06T02:50:57;99052.28;;;20.38;65.48
33286;BME280;19656;50.096;20.014;2022-07-06T02:56:02;99050.95;;;20.37;65.38
33286;BME280;19656;50.096;20.014;2022-07-06T03:01:08;99052.21;;;20.37;65.46
33286;BME280;19656;50.096;20.014;2022-07-06T03:06:12;99059.81;;;20.37;65.38
33286;BME280;19656;50.096;20.014;2022-07-06T03:11:15;99061.19;;;20.46;65.58
33286;BME280;19656;50.096;20.014;2022-07-06T03:16:18;99058.14;;;20.51;65.59
33286;BME280;19656;50.096;20.014;2022-07-06T03:21:23;99057.02;;;20.56;65.55
33286;BME280;19656;50.096;20.014;2022-07-06T03:26:26;99054.67;;;20.54;65.38
33286;BME280;19656;50.096;20.014;2022-07-06T03:31:30;99058.27;;;20.53;65.17
33286;BME280;19656;50.096;20.014;2022-07-06T03:36:33;99057.48;;;20.52;65.16
33286;BME280;19656;50.096;20.014;2022-07-06T03:41:41;99066.61;;;20.50;65.16
33286;BME280;19656;50.096;20.014;2022-07-06T03:46:45;99076.94;;;20.47;64.87
33286;BME280;19656;50.096;20.014;2022-07-06T03:51:48;99089.03;;;20.42;64.80
33286;BME280;19656;50.096;20.014;2022-07-06T03:56:51;99093.36;;;20.38;64.78
33286;BME280;19656;50.096;20.014;2022-07-06T04:01:55;99097.42;;;20.35;64.81
33286;BME280;19656;50.096;20.014;2022-07-06T04:06:58;99085.58;;;20.37;64.96
33286;BME280;19656;50.096;20.014;2022-07-06T04:12:02;99087.74;;;20.47;65.01
33286;BME280;19656;50.096;20.014;2022-07-06T04:17:05;99084.64;;;20.44;64.86
33286;BME280;19656;50.096;20.014;2022-07-06T04:22:27;99088.72;;;20.45;64.81
33286;BME280;19656;50.096;20.014;2022-07-06T04:27:30;99090.39;;;20.43;64.73
33286;BME280;19656;50.096;20.014;2022-07-06T04:32:33;99093.67;;;20.39;64.60
33286;BME280;19656;50.096;20.014;2022-07-06T04:37:36;99094.45;;;20.38;64.71
33286;BME280;19656;50.096;20.014;2022-07-06T04:42:40;99099.65;;;20.35;64.68
33286;BME280;19656;50.096;20.014;2022-07-06T04:47:44;99112.95;;;20.30;64.63
33286;BME280;19656;50.096;20.014;2022-07-06T04:52:47;99135.29;;;20.30;64.66
33286;BME280;19656;50.096;20.014;2022-07-06T04:57:50;99131.80;;;20.25;64.57
33286;BME280;19656;50.096;20.014;2022-07-06T05:02:57;99142.05;;;20.30;64.64
33286;BME280;19656;50.096;20.014;2022-07-06T05:08:01;99147.86;;;20.38;64.73
33286;BME280;19656;50.096;20.014;2022-07-06T05:13:04;99154.26;;;20.46;64.78
33286;BME280;19656;50.096;20.014;2022-07-06T05:18:07;99151.35;;;20.51;64.69
33286;BME280;19656;50.096;20.014;2022-07-06T05:23:11;99152.11;;;20.55;64.47
33286;BME280;19656;50.096;20.014;2022-07-06T05:28:14;99153.23;;;20.60;64.43
33286;BME280;19656;50.096;20.014;2022-07-06T05:33:17;99161.27;;;20.73;64.39
33286;BME280;19656;50.096;20.014;2022-07-06T05:38:21;99150.17;;;20.81;64.15
33286;BME280;19656;50.096;20.014;2022-07-06T05:43:24;99157.85;;;20.97;64.36
33286;BME280;19656;50.096;20.014;2022-07-06T05:48:29;99160.21;;;21.26;64.43
33286;BME280;19656;50.096;20.014;2022-07-06T05:53:51;99152.84;;;21.54;64.17
33286;BME280;19656;50.096;20.014;2022-07-06T05:58:54;99151.00;;;21.64;63.61
33286;BME280;19656;50.096;20.014;2022-07-06T06:03:58;99159.89;;;21.72;63.16
33286;BME280;19656;50.096;20.014;2022-07-06T06:09:02;99152.07;;;21.73;62.83
33286;BME280;19656;50.096;20.014;2022-07-06T06:14:05;99153.47;;;21.82;62.93
33286;BME280;19656;50.096;20.014;2022-07-06T06:19:09;99149.80;;;21.84;62.25
33286;BME280;19656;50.096;20.014;2022-07-06T06:24:12;99152.08;;;21.88;62.11
33286;BME280;19656;50.096;20.014;2022-07-06T06:29:15;99146.73;;;21.91;61.61
33286;BME280;19656;50.096;20.014;2022-07-06T06:34:18;99154.95;;;21.83;61.16
33286;BME280;19656;50.096;20.014;2022-07-06T06:39:21;99164.40;;;21.79;61.15
33286;BME280;19656;50.096;20.014;2022-07-06T06:44:24;99165.67;;;21.84;61.20
33286;BME280;19656;50.096;20.014;2022-07-06T06:49:27;99169.90;;;21.85;60.92
33286;BME280;19656;50.096;20.014;2022-07-06T06:54:30;99180.59;;;21.83;60.68
33286;BME280;19656;50.096;20.014;2022-07-06T06:59:33;99188.83;;;21.82;60.57
33286;BME280;19656;50.096;20.014;2022-07-06T07:04:36;99181.83;;;21.85;60.47
33286;BME280;19656;50.096;20.014;2022-07-06T07:09:39;99175.27;;;21.84;60.20
33286;BME280;19656;50.096;20.014;2022-07-06T07:14:43;99168.48;;;21.83;60.25
33286;BME280;19656;50.096;20.014;2022-07-06T07:19:46;99169.45;;;21.89;60.27
33286;BME280;19656;50.096;20.014;2022-07-06T07:24:49;99172.77;;;21.99;60.42
33286;BME280;19656;50.096;20.014;2022-07-06T07:29:52;99182.03;;;22.15;60.04
33286;BME280;19656;50.096;20.014;2022-07-06T07:34:56;99178.19;;;22.17;59.65
33286;BME280;19656;50.096;20.014;2022-07-06T07:39:59;99184.40;;;22.17;59.73
33286;BME280;19656;50.096;20.014;2022-07-06T07:45:03;99188.48;;;22.26;59.94
33286;BME280;19656;50.096;20.014;2022-07-06T07:50:09;99190.88;;;22.41;59.90
33286;BME280;19656;50.096;20.014;2022-07-06T07:55:12;99193.44;;;22.49;59.58
33286;BME280;19656;50.096;20.014;2022-07-06T08:00:36;99193.38;;;22.54;59.53
33286;BME280;19656;50.096;20.014;2022-07-06T08:05:39;99200.14;;;22.65;59.39
33286;BME280;19656;50.096;20.014;2022-07-06T08:10:42;99196.59;;;22.86;59.96
33286;BME280;19656;50.096;20.014;2022-07-06T08:16:05;99201.52;;;22.99;58.76
33286;BME280;19656;50.096;20.014;2022-07-06T08:21:08;99193.91;;;23.04;58.42
33286;BME280;19656;50.096;20.014;2022-07-06T08:26:29;99192.36;;;23.14;58.29
33286;BME280;19656;50.096;20.014;2022-07-06T08:31:32;99197.80;;;23.14;57.64
33286;BME280;19656;50.096;20.014;2022-07-06T08:36:57;99197.95;;;23.11;57.45
33286;BME280;19656;50.096;20.014;2022-07-06T08:42:00;99198.86;;;23.11;57.34
33286;BME280;19656;50.096;20.014;2022-07-06T08:47:06;99206.59;;;23.15;57.18
33286;BME280;19656;50.096;20.014;2022-07-06T08:52:11;99203.68;;;23.11;56.84
33286;BME280;19656;50.096;20.014;2022-07-06T08:57:15;99201.30;;;23.14;56.81
33286;BME280;19656;50.096;20.014;2022-07-06T09:02:19;99216.75;;;23.15;56.82
33286;BME280;19656;50.096;20.014;2022-07-06T09:07:22;99227.67;;;23.14;56.58
33286;BME280;19656;50.096;20.014;2022-07-06T09:12:45;99235.20;;;22.90;56.89
33286;BME280;19656;50.096;20.014;2022-07-06T09:17:48;99244.66;;;22.51;57.02
33286;BME280;19656;50.096;20.014;2022-07-06T09:22:57;99248.54;;;21.99;57.31
33286;BME280;19656;50.096;20.014;2022-07-06T09:28:01;99247.48;;;21.58;58.05
33286;BME280;19656;50.096;20.014;2022-07-06T09:33:07;99236.75;;;21.39;58.80
33286;BME280;19656;50.096;20.014;2022-07-06T09:38:14;99226.50;;;21.38;59.29
33286;BME280;19656;50.096;20.014;2022-07-06T09:43:19;99218.60;;;21.35;59.97
33286;BME280;19656;50.096;20.014;2022-07-06T09:48:24;99220.20;;;21.42;60.36
33286;BME280;19656;50.096;20.014;2022-07-06T09:53:28;99212.09;;;21.59;60.83
33286;BME280;19656;50.096;20.014;2022-07-06T09:58:31;99211.40;;;21.79;60.88
33286;BME280;19656;50.096;20.014;2022-07-06T10:03:54;99219.60;;;22.09;60.91
33286;BME280;19656;50.096;20.014;2022-07-06T10:08:58;99224.05;;;22.31;60.13
33286;BME280;19656;50.096;20.014;2022-07-06T10:14:03;99217.71;;;22.52;59.72
33286;BME280;19656;50.096;20.014;2022-07-06T10:19:08;99212.58;;;22.80;58.88
33286;BME280;19656;50.096;20.014;2022-07-06T10:24:12;99202.04;;;22.89;58.08
33286;BME280;19656;50.096;20.014;2022-07-06T10:29:16;99216.35;;;22.96;57.45
33286;BME280;19656;50.096;20.014;2022-07-06T10:34:19;99208.37;;;22.94;57.03
33286;BME280;19656;50.096;20.014;2022-07-06T10:39:36;99216.80;;;22.97;56.74
33286;BME280;19656;50.096;20.014;2022-07-06T10:44:58;99214.48;;;22.96;56.32
33286;BME280;19656;50.096;20.014;2022-07-06T10:50:03;99208.34;;;22.98;55.99
33286;BME280;19656;50.096;20.014;2022-07-06T10:55:37;99208.00;;;23.05;55.78
33286;BME280;19656;50.096;20.014;2022-07-06T11:00:54;99202.67;;;23.24;56.05
33286;BME280;19656;50.096;20.014;2022-07-06T11:06:00;99203.21;;;23.46;55.41
33286;BME280;19656;50.096;20.014;2022-07-06T11:22:10;99189.19;;;24.82;54.56
33286;BME280;19656;50.096;20.014;2022-07-06T11:27:13;99183.77;;;25.25;53.62
33286;BME280;19656;50.096;20.014;2022-07-06T11:32:23;99184.78;;;25.40;52.81
33286;BME280;19656;50.096;20.014;2022-07-06T11:37:26;99185.46;;;25.49;52.33
33286;BME280;19656;50.096;20.014;2022-07-06T11:42:29;99194.01;;;25.43;51.48
33286;BME280;19656;50.096;20.014;2022-07-06T11:47:32;99191.39;;;25.15;50.92
33286;BME280;19656;50.096;20.014;2022-07-06T11:52:36;99197.80;;;24.89;50.61
33286;BME280;19656;50.096;20.014;2022-07-06T11:57:40;99208.41;;;24.72;50.69
33286;BME280;19656;50.096;20.014;2022-07-06T12:02:59;99200.30;;;24.61;50.39
33286;BME280;19656;50.096;20.014;2022-07-06T12:08:04;99194.35;;;24.55;50.32
33286;BME280;19656;50.096;20.014;2022-07-06T12:13:07;99195.98;;;24.40;50.33
33286;BME280;19656;50.096;20.014;2022-07-06T12:18:11;99196.24;;;24.22;50.36
33286;BME280;19656;50.096;20.014;2022-07-06T12:23:14;99194.00;;;24.12;50.49
33286;BME280;19656;50.096;20.014;2022-07-06T12:28:23;99188.55;;;24.42;50.84
33286;BME280;19656;50.096;20.014;2022-07-06T12:33:26;99182.36;;;24.78;50.29
33286;BME280;19656;50.096;20.014;2022-07-06T12:38:31;99177.21;;;24.95;50.00
33286;BME280;19656;50.096;20.014;2022-07-06T12:43:39;99176.23;;;25.19;49.63
33286;BME280;19656;50.096;20.014;2022-07-06T12:48:53;99175.02;;;25.21;49.01
33286;BME280;19656;50.096;20.014;2022-07-06T12:54:12;99175.67;;;25.31;48.74
33286;BME280;19656;50.096;20.014;2022-07-06T12:59:22;99173.92;;;25.35;48.59
33286;BME280;19656;50.096;20.014;2022-07-06T13:04:28;99186.00;;;25.36;48.05
33286;BME280;19656;50.096;20.014;2022-07-06T13:09:31;99179.71;;;25.26;48.06
33286;BME280;19656;50.096;20.014;2022-07-06T13:14:34;99189.15;;;25.52;48.41
33286;BME280;19656;50.096;20.014;2022-07-06T13:19:37;99198.28;;;25.54;47.48
33286;BME280;19656;50.096;20.014;2022-07-06T13:24:41;99205.26;;;25.55;46.94
33286;BME280;19656;50.096;20.014;2022-07-06T13:29:44;99212.08;;;25.85;46.63
33286;BME280;19656;50.096;20.014;2022-07-06T13:34:48;99201.00;;;25.94;46.34
33286;BME280;19656;50.096;20.014;2022-07-06T13:39:51;99201.52;;;25.83;46.25
33286;BME280;19656;50.096;20.014;2022-07-06T13:44:54;99201.27;;;25.92;46.31
33286;BME280;19656;50.096;20.014;2022-07-06T13:49:57;99212.96;;;25.88;46.56
33286;BME280;19656;50.096;20.014;2022-07-06T13:55:00;99209.39;;;26.17;46.82
33286;BME280;19656;50.096;20.014;2022-07-06T14:00:05;99208.89;;;26.52;46.29
33286;BME280;19656;50.096;20.014;2022-07-06T14:05:10;99209.52;;;26.60;45.50
33286;BME280;19656;50.096;20.014;2022-07-06T14:10:13;99223.84;;;26.22;45.57
33286;BME280;19656;50.096;20.014;2022-07-06T14:15:16;99222.59;;;25.70;45.99
33286;BME280;19656;50.096;20.014;2022-07-06T14:20:19;99233.38;;;25.30;46.29
33286;BME280;19656;50.096;20.014;2022-07-06T14:25:22;99235.17;;;24.89;46.72
33286;BME280;19656;50.096;20.014;2022-07-06T14:30:26;99227.98;;;24.74;47.44
33286;BME280;19656;50.096;20.014;2022-07-06T14:35:29;99233.10;;;24.60;47.32
33286;BME280;19656;50.096;20.014;2022-07-06T14:40:32;99247.08;;;24.43;47.39
33286;BME280;19656;50.096;20.014;2022-07-06T14:45:36;99260.70;;;24.22;47.59
33286;BME280;19656;50.096;20.014;2022-07-06T14:50:39;99267.43;;;23.95;47.81
33286;BME280;19656;50.096;20.014;2022-07-06T14:55:42;99252.94;;;23.67;48.40
33286;BME280;19656;50.096;20.014;2022-07-06T15:00:45;99249.77;;;23.43;49.03
33286;BME280;19656;50.096;20.014;2022-07-06T15:05:50;99259.07;;;23.28;49.80
33286;BME280;19656;50.096;20.014;2022-07-06T15:10:53;99250.02;;;23.18;50.49
33286;BME280;19656;50.096;20.014;2022-07-06T15:15:56;99239.28;;;23.20;51.15
33286;BME280;19656;50.096;20.014;2022-07-06T15:21:00;99234.36;;;23.21;51.33
33286;BME280;19656;50.096;20.014;2022-07-06T15:26:05;99237.64;;;23.29;51.72
33286;BME280;19656;50.096;20.014;2022-07-06T15:31:08;99233.52;;;23.30;51.99
33286;BME280;19656;50.096;20.014;2022-07-06T15:36:11;99233.77;;;23.44;52.28
33286;BME280;19656;50.096;20.014;2022-07-06T15:41:14;99238.77;;;23.50;52.02
33286;BME280;19656;50.096;20.014;2022-07-06T15:46:17;99237.01;;;23.36;51.79
33286;BME280;19656;50.096;20.014;2022-07-06T15:51:21;99231.93;;;23.34;52.29
33286;BME280;19656;50.096;20.014;2022-07-06T15:56:23;99224.98;;;23.43;52.25
33286;BME280;19656;50.096;20.014;2022-07-06T16:01:26;99220.72;;;23.52;52.46
33286;BME280;19656;50.096;20.014;2022-07-06T16:06:30;99223.98;;;23.53;51.81
33286;BME280;19656;50.096;20.014;2022-07-06T16:11:53;99230.65;;;23.46;51.80
33286;BME280;19656;50.096;20.014;2022-07-06T16:16:56;99228.89;;;23.29;51.38
33286;BME280;19656;50.096;20.014;2022-07-06T16:22:02;99227.07;;;23.12;51.46
33286;BME280;19656;50.096;20.014;2022-07-06T16:27:07;99236.54;;;23.11;51.76
33286;BME280;19656;50.096;20.014;2022-07-06T16:32:10;99243.73;;;23.28;52.40
33286;BME280;19656;50.096;20.014;2022-07-06T16:37:13;99242.45;;;23.41;52.47
33286;BME280;19656;50.096;20.014;2022-07-06T16:42:17;99238.56;;;23.43;51.97
33286;BME280;19656;50.096;20.014;2022-07-06T16:47:20;99247.52;;;23.29;51.54
33286;BME280;19656;50.096;20.014;2022-07-06T16:52:24;99244.75;;;23.20;51.76
33286;BME280;19656;50.096;20.014;2022-07-06T16:57:27;99243.19;;;23.10;51.06
33286;BME280;19656;50.096;20.014;2022-07-06T17:02:30;99251.77;;;22.94;50.59
33286;BME280;19656;50.096;20.014;2022-07-06T17:07:33;99251.79;;;22.82;50.49
33286;BME280;19656;50.096;20.014;2022-07-06T17:12:36;99250.95;;;22.80;50.37
33286;BME280;19656;50.096;20.014;2022-07-06T17:17:40;99242.93;;;22.72;50.39
33286;BME280;19656;50.096;20.014;2022-07-06T17:22:43;99237.34;;;22.72;50.33
33286;BME280;19656;50.096;20.014;2022-07-06T17:27:46;99242.66;;;22.75;50.50
33286;BME280;19656;50.096;20.014;2022-07-06T17:32:56;99246.78;;;22.74;50.23
33286;BME280;19656;50.096;20.014;2022-07-06T17:38:02;99245.63;;;22.64;49.90
33286;BME280;19656;50.096;20.014;2022-07-06T17:43:06;99251.08;;;22.51;49.49
33286;BME280;19656;50.096;20.014;2022-07-06T17:48:09;99256.84;;;22.33;49.66
33286;BME280;19656;50.096;20.014;2022-07-06T17:53:12;99256.66;;;22.16;49.58
33286;BME280;19656;50.096;20.014;2022-07-06T17:58:15;99260.91;;;22.01;49.44
33286;BME280;19656;50.096;20.014;2022-07-06T18:03:18;99264.73;;;21.92;49.53
33286;BME280;19656;50.096;20.014;2022-07-06T18:08:21;99270.56;;;21.85;49.42
33286;BME280;19656;50.096;20.014;2022-07-06T18:13:25;99270.97;;;21.73;49.19
33286;BME280;19656;50.096;20.014;2022-07-06T18:18:30;99271.92;;;21.72;49.90
33286;BME280;19656;50.096;20.014;2022-07-06T18:23:33;99275.77;;;21.68;49.79
33286;BME280;19656;50.096;20.014;2022-07-06T18:28:39;99277.05;;;21.63;49.70
33286;BME280;19656;50.096;20.014;2022-07-06T18:33:44;99274.02;;;21.59;49.96
33286;BME280;19656;50.096;20.014;2022-07-06T18:38:47;99269.00;;;21.53;50.48
33286;BME280;19656;50.096;20.014;2022-07-06T18:43:50;99273.61;;;21.54;50.54
33286;BME280;19656;50.096;20.014;2022-07-06T18:48:54;99280.52;;;21.45;50.48
33286;BME280;19656;50.096;20.014;2022-07-06T18:53:57;99284.17;;;21.44;50.80
33286;BME280;19656;50.096;20.014;2022-07-06T18:59:00;99282.88;;;21.55;51.73
33286;BME280;19656;50.096;20.014;2022-07-06T19:04:04;99290.08;;;21.86;52.18
33286;BME280;19656;50.096;20.014;2022-07-06T19:09:08;99295.05;;;22.11;52.46
33286;BME280;19656;50.096;20.014;2022-07-06T19:14:11;99297.67;;;22.21;51.75
33286;BME280;19656;50.096;20.014;2022-07-06T19:19:14;99298.15;;;22.06;50.92
33286;BME280;19656;50.096;20.014;2022-07-06T19:24:17;99298.52;;;21.94;51.08
33286;BME280;19656;50.096;20.014;2022-07-06T19:29:21;99304.70;;;21.82;51.12
33286;BME280;19656;50.096;20.014;2022-07-06T19:34:24;99305.10;;;21.86;51.47
33286;BME280;19656;50.096;20.014;2022-07-06T19:39:27;99304.29;;;21.65;51.11
33286;BME280;19656;50.096;20.014;2022-07-06T19:44:30;99310.39;;;21.44;51.35
33286;BME280;19656;50.096;20.014;2022-07-06T19:49:33;99318.69;;;21.26;51.28
33286;BME280;19656;50.096;20.014;2022-07-06T19:54:36;99327.88;;;21.16;51.29
33286;BME280;19656;50.096;20.014;2022-07-06T19:59:39;99328.24;;;21.09;51.39
33286;BME280;19656;50.096;20.014;2022-07-06T20:04:42;99337.77;;;21.00;51.39
33286;BME280;19656;50.096;20.014;2022-07-06T20:09:45;99341.61;;;20.91;51.51
33286;BME280;19656;50.096;20.014;2022-07-06T20:14:49;99338.69;;;20.87;51.65
33286;BME280;19656;50.096;20.014;2022-07-06T20:19:52;99340.17;;;20.83;51.67
33286;BME280;19656;50.096;20.014;2022-07-06T20:24:55;99338.00;;;20.78;51.69
33286;BME280;19656;50.096;20.014;2022-07-06T20:29:58;99333.71;;;20.70;51.73
33286;BME280;19656;50.096;20.014;2022-07-06T20:35:01;99339.45;;;20.64;51.86
33286;BME280;19656;50.096;20.014;2022-07-06T20:40:04;99344.57;;;20.57;52.00
33286;BME280;19656;50.096;20.014;2022-07-06T20:45:08;99348.01;;;20.51;52.20
33286;BME280;19656;50.096;20.014;2022-07-06T20:50:11;99348.16;;;20.44;52.24
33286;BME280;19656;50.096;20.014;2022-07-06T20:55:15;99343.11;;;20.40;52.47
33286;BME280;19656;50.096;20.014;2022-07-06T21:00:18;99333.82;;;20.34;52.59
33286;BME280;19656;50.096;20.014;2022-07-06T21:05:21;99337.33;;;20.26;52.64
33286;BME280;19656;50.096;20.014;2022-07-06T21:10:24;99339.83;;;20.21;52.95
33286;BME280;19656;50.096;20.014;2022-07-06T21:15:28;99345.16;;;20.18;52.99
33286;BME280;19656;50.096;20.014;2022-07-06T21:20:31;99347.58;;;20.11;53.07
33286;BME280;19656;50.096;20.014;2022-07-06T21:25:34;99344.20;;;20.02;53.25
33286;BME280;19656;50.096;20.014;2022-07-06T21:30:37;99338.56;;;19.93;53.41
33286;BME280;19656;50.096;20.014;2022-07-06T21:35:40;99347.83;;;19.90;53.72
33286;BME280;19656;50.096;20.014;2022-07-06T21:40:43;99343.98;;;19.85;53.90
33286;BME280;19656;50.096;20.014;2022-07-06T21:45:46;99350.10;;;19.81;54.08
33286;BME280;19656;50.096;20.014;2022-07-06T21:50:49;99350.88;;;19.75;54.28
33286;BME280;19656;50.096;20.014;2022-07-06T21:55:53;99342.72;;;19.74;54.47
33286;BME280;19656;50.096;20.014;2022-07-06T22:00:56;99342.92;;;19.70;54.63
33286;BME280;19656;50.096;20.014;2022-07-06T22:05:59;99340.71;;;19.69;54.73
33286;BME280;19656;50.096;20.014;2022-07-06T22:11:14;99335.36;;;19.62;54.88
33286;BME280;19656;50.096;20.014;2022-07-06T22:16:18;99336.10;;;19.56;55.01
33286;BME280;19656;50.096;20.014;2022-07-06T22:21:22;99337.73;;;19.52;55.11
33286;BME280;19656;50.096;20.014;2022-07-06T22:26:25;99342.11;;;19.48;55.15
33286;BME280;19656;50.096;20.014;2022-07-06T22:31:28;99333.01;;;19.43;55.08
33286;BME280;19656;50.096;20.014;2022-07-06T22:36:31;99335.89;;;19.39;55.28
33286;BME280;19656;50.096;20.014;2022-07-06T22:41:36;99327.87;;;19.36;55.21
33286;BME280;19656;50.096;20.014;2022-07-06T22:46:39;99324.66;;;19.34;55.44
33286;BME280;19656;50.096;20.014;2022-07-06T22:51:42;99328.02;;;19.33;55.54
33286;BME280;19656;50.096;20.014;2022-07-06T22:56:45;99337.16;;;19.31;55.34
33286;BME280;19656;50.096;20.014;2022-07-06T23:01:49;99341.67;;;19.31;55.58
33286;BME280;19656;50.096;20.014;2022-07-06T23:06:51;99341.38;;;19.31;55.50
33286;BME280;19656;50.096;20.014;2022-07-06T23:11:55;99335.20;;;19.27;55.72
33286;BME280;19656;50.096;20.014;2022-07-06T23:16:58;99337.00;;;19.25;55.72
33286;BME280;19656;50.096;20.014;2022-07-06T23:22:01;99336.05;;;19.24;55.78
33286;BME280;19656;50.096;20.014;2022-07-06T23:27:04;99332.94;;;19.25;55.73
33286;BME280;19656;50.096;20.014;2022-07-06T23:32:07;99326.48;;;19.24;55.98
33286;BME280;19656;50.096;20.014;2022-07-06T23:37:11;99325.45;;;19.22;55.85
33286;BME280;19656;50.096;20.014;2022-07-06T23:42:14;99322.03;;;19.16;55.94
33286;BME280;19656;50.096;20.014;2022-07-06T23:47:17;99329.08;;;19.16;56.11
33286;BME280;19656;50.096;20.014;2022-07-06T23:52:20;99333.91;;;19.10;56.19
33286;BME280;19656;50.096;20.014;2022-07-06T23:57:23;99334.67;;;19.04;56.39
